sensor_id;sensor_type;location;lat;lon;timestamp;pressure;altitude;pressure_sealevel;temperature;humidity
73952;BME280;62304;47.662;18.324;2024-01-15T00:00:47;99083.84;;;-2.54;92.24
73952;BME280;62304;47.662;18.324;2024-01-15T00:03:51;99076.00;;;-2.64;92.24
73952;BME280;62304;47.662;18.324;2024-01-15T00:06:54;99071.53;;;-2.51;91.79
73952;BME280;62304;47.662;18.324;2024-01-15T00:09:57;99062.13;;;-2.54;92.13
73952;BME280;62304;47.662;18.324;2024-01-15T00:13:00;99055.00;;;-2.24;90.81
73952;BME280;62304;47.662;18.324;2024-01-15T00:16:04;99041.41;;;-2.24;90.19
73952;BME280;62304;47.662;18.324;2024-01-15T00:19:08;99032.16;;;-2.15;90.18
73952;BME280;62304;47.662;18.324;2024-01-15T00:22:12;99032.34;;;-2.20;90.28
73952;BME280;62304;47.662;18.324;2024-01-15T00:25:14;99016.81;;;-2.19;90.56
73952;BME280;62304;47.662;18.324;2024-01-15T00:28:18;99014.41;;;-2.29;91.57
73952;BME280;62304;47.662;18.324;2024-01-15T00:31:20;99009.34;;;-2.22;91.02
73952;BME280;62304;47.662;18.324;2024-01-15T00:34:24;98993.97;;;-2.35;91.72
73952;BME280;62304;47.662;18.324;2024-01-15T00:37:27;98988.37;;;-2.22;91.65
73952;BME280;62304;47.662;18.324;2024-01-15T00:40:30;98999.56;;;-2.06;91.77
73952;BME280;62304;47.662;18.324;2024-01-15T00:43:35;98994.13;;;-2.06;90.74
73952;BME280;62304;47.662;18.324;2024-01-15T00:46:43;98993.97;;;-2.10;91.21
73952;BME280;62304;47.662;18.324;2024-01-15T00:49:47;98989.63;;;-1.85;90.73
73952;BME280;62304;47.662;18.324;2024-01-15T00:52:50;98983.75;;;-1.87;91.02
73952;BME280;62304;47.662;18.324;2024-01-15T00:55:53;98990.91;;;-1.83;90.62
73952;BME280;62304;47.662;18.324;2024-01-15T00:58:56;98982.66;;;-2.20;91.92
73952;BME280;62304;47.662;18.324;2024-01-15T01:01:59;98990.31;;;-2.05;91.44
73952;BME280;62304;47.662;18.324;2024-01-15T01:05:05;98971.47;;;-2.10;91.43
73952;BME280;62304;47.662;18.324;2024-01-15T01:08:09;98958.69;;;-2.27;93.48
73952;BME280;62304;47.662;18.324;2024-01-15T01:11:14;98961.88;;;-2.16;93.64
73952;BME280;62304;47.662;18.324;2024-01-15T01:14:18;98967.75;;;-1.97;92.37
73952;BME280;62304;47.662;18.324;2024-01-15T01:17:21;98965.22;;;-2.02;92.28
73952;BME280;62304;47.662;18.324;2024-01-15T01:20:25;98956.75;;;-2.01;92.16
73952;BME280;62304;47.662;18.324;2024-01-15T01:23:28;98941.59;;;-2.10;92.02
73952;BME280;62304;47.662;18.324;2024-01-15T01:26:31;98947.97;;;-1.98;92.26
73952;BME280;62304;47.662;18.324;2024-01-15T01:29:35;98950.84;;;-1.94;91.75
73952;BME280;62304;47.662;18.324;2024-01-15T01:32:38;98941.44;;;-2.05;91.82
73952;BME280;62304;47.662;18.324;2024-01-15T01:35:41;98951.78;;;-2.07;92.56
73952;BME280;62304;47.662;18.324;2024-01-15T01:38:44;98938.06;;;-2.02;92.63
73952;BME280;62304;47.662;18.324;2024-01-15T01:41:47;98930.06;;;-2.07;93.34
73952;BME280;62304;47.662;18.324;2024-01-15T01:44:50;98925.75;;;-2.00;92.86
73952;BME280;62304;47.662;18.324;2024-01-15T01:47:54;98919.03;;;-1.94;93.10
73952;BME280;62304;47.662;18.324;2024-01-15T01:50:58;98912.81;;;-1.94;93.19
73952;BME280;62304;47.662;18.324;2024-01-15T01:54:02;98903.19;;;-1.83;92.58
73952;BME280;62304;47.662;18.324;2024-01-15T01:57:05;98914.06;;;-1.83;91.88
73952;BME280;62304;47.662;18.324;2024-01-15T02:00:11;98906.75;;;-2.08;91.57
73952;BME280;62304;47.662;18.324;2024-01-15T02:03:14;98908.53;;;-2.21;92.50
73952;BME280;62304;47.662;18.324;2024-01-15T02:06:18;98901.06;;;-2.58;95.87
73952;BME280;62304;47.662;18.324;2024-01-15T02:09:23;98915.25;;;-2.52;93.79
73952;BME280;62304;47.662;18.324;2024-01-15T02:12:26;98920.22;;;-2.63;94.42
73952;BME280;62304;47.662;18.324;2024-01-15T02:15:30;98916.22;;;-2.57;94.54
73952;BME280;62304;47.662;18.324;2024-01-15T02:18:43;98919.41;;;-2.38;93.60
73952;BME280;62304;47.662;18.324;2024-01-15T02:21:46;98914.13;;;-2.34;93.11
73952;BME280;62304;47.662;18.324;2024-01-15T02:24:49;98913.16;;;-2.21;92.30
73952;BME280;62304;47.662;18.324;2024-01-15T02:27:53;98909.34;;;-2.37;92.34
73952;BME280;62304;47.662;18.324;2024-01-15T02:30:56;98895.44;;;-2.70;93.87
73952;BME280;62304;47.662;18.324;2024-01-15T02:34:00;98902.81;;;-2.70;93.65
73952;BME280;62304;47.662;18.324;2024-01-15T02:37:03;98910.78;;;-2.65;93.43
73952;BME280;62304;47.662;18.324;2024-01-15T02:40:07;98899.28;;;-2.88;94.17
73952;BME280;62304;47.662;18.324;2024-01-15T02:43:10;98904.41;;;-2.69;92.92
73952;BME280;62304;47.662;18.324;2024-01-15T02:46:13;98897.53;;;-2.58;92.08
73952;BME280;62304;47.662;18.324;2024-01-15T02:49:16;98907.59;;;-2.42;92.10
73952;BME280;62304;47.662;18.324;2024-01-15T02:52:20;98915.72;;;-2.25;91.30
73952;BME280;62304;47.662;18.324;2024-01-15T02:55:22;98920.81;;;-2.23;91.60
73952;BME280;62304;47.662;18.324;2024-01-15T02:58:26;98913.78;;;-2.07;91.46
73952;BME280;62304;47.662;18.324;2024-01-15T03:01:29;98921.72;;;-1.94;90.54
73952;BME280;62304;47.662;18.324;2024-01-15T03:04:33;98913.28;;;-2.01;90.65
73952;BME280;62304;47.662;18.324;2024-01-15T03:07:36;98922.84;;;-1.95;90.41
73952;BME280;62304;47.662;18.324;2024-01-15T03:10:39;98908.97;;;-1.93;90.17
73952;BME280;62304;47.662;18.324;2024-01-15T03:13:42;98894.06;;;-1.79;89.75
73952;BME280;62304;47.662;18.324;2024-01-15T03:16:45;98890.06;;;-1.81;90.11
73952;BME280;62304;47.662;18.324;2024-01-15T03:19:49;98892.50;;;-1.97;90.31
73952;BME280;62304;47.662;18.324;2024-01-15T03:22:55;98892.69;;;-2.10;90.98
73952;BME280;62304;47.662;18.324;2024-01-15T03:25:58;98899.09;;;-2.23;91.71
73952;BME280;62304;47.662;18.324;2024-01-15T03:29:01;98905.97;;;-2.26;92.35
73952;BME280;62304;47.662;18.324;2024-01-15T03:32:04;98908.06;;;-2.23;93.43
73952;BME280;62304;47.662;18.324;2024-01-15T03:35:08;98896.72;;;-2.16;93.33
73952;BME280;62304;47.662;18.324;2024-01-15T03:38:11;98888.56;;;-2.16;92.77
73952;BME280;62304;47.662;18.324;2024-01-15T03:41:14;98876.56;;;-2.07;92.67
73952;BME280;62304;47.662;18.324;2024-01-15T03:44:17;98877.03;;;-2.13;92.87
73952;BME280;62304;47.662;18.324;2024-01-15T03:47:20;98870.69;;;-2.34;93.64
73952;BME280;62304;47.662;18.324;2024-01-15T03:50:23;98883.75;;;-2.19;93.10
73952;BME280;62304;47.662;18.324;2024-01-15T03:53:27;98885.03;;;-2.17;92.26
73952;BME280;62304;47.662;18.324;2024-01-15T03:56:31;98881.72;;;-2.56;92.88
73952;BME280;62304;47.662;18.324;2024-01-15T03:59:34;98901.84;;;-2.40;92.26
73952;BME280;62304;47.662;18.324;2024-01-15T04:02:37;98894.34;;;-2.77;93.42
73952;BME280;62304;47.662;18.324;2024-01-15T04:05:41;98889.88;;;-2.65;92.76
73952;BME280;62304;47.662;18.324;2024-01-15T04:08:45;98867.03;;;-3.06;95.34
73952;BME280;62304;47.662;18.324;2024-01-15T04:11:48;98869.25;;;-3.25;96.62
73952;BME280;62304;47.662;18.324;2024-01-15T04:14:52;98861.56;;;-3.23;97.44
73952;BME280;62304;47.662;18.324;2024-01-15T04:17:55;98856.50;;;-3.16;96.17
73952;BME280;62304;47.662;18.324;2024-01-15T04:20:58;98868.78;;;-3.10;96.06
73952;BME280;62304;47.662;18.324;2024-01-15T04:24:01;98864.66;;;-2.99;95.48
73952;BME280;62304;47.662;18.324;2024-01-15T04:27:06;98854.59;;;-2.90;94.54
73952;BME280;62304;47.662;18.324;2024-01-15T04:30:10;98863.84;;;-2.91;94.24
73952;BME280;62304;47.662;18.324;2024-01-15T04:33:13;98878.84;;;-2.94;93.95
73952;BME280;62304;47.662;18.324;2024-01-15T04:36:17;98868.59;;;-3.14;93.69
73952;BME280;62304;47.662;18.324;2024-01-15T04:39:20;98879.53;;;-3.44;93.54
73952;BME280;62304;47.662;18.324;2024-01-15T04:42:26;98878.75;;;-3.45;94.35
73952;BME280;62304;47.662;18.324;2024-01-15T04:45:29;98862.28;;;-3.65;96.60
73952;BME280;62304;47.662;18.324;2024-01-15T04:48:34;98885.59;;;-3.47;97.26
73952;BME280;62304;47.662;18.324;2024-01-15T04:51:37;98886.56;;;-3.52;97.37
73952;BME280;62304;47.662;18.324;2024-01-15T04:54:40;98895.00;;;-3.45;96.52
73952;BME280;62304;47.662;18.324;2024-01-15T04:57:43;98900.12;;;-3.43;96.42
73952;BME280;62304;47.662;18.324;2024-01-15T05:00:47;98902.50;;;-3.42;95.42
73952;BME280;62304;47.662;18.324;2024-01-15T05:03:50;98908.59;;;-3.36;96.01
73952;BME280;62304;47.662;18.324;2024-01-15T05:06:55;98910.00;;;-3.39;95.63
73952;BME280;62304;47.662;18.324;2024-01-15T05:09:58;98903.56;;;-3.60;96.43
73952;BME280;62304;47.662;18.324;2024-01-15T05:13:01;98895.47;;;-3.51;95.72
73952;BME280;62304;47.662;18.324;2024-01-15T05:16:04;98895.69;;;-3.70;95.70
73952;BME280;62304;47.662;18.324;2024-01-15T05:19:07;98893.03;;;-3.61;95.81
73952;BME280;62304;47.662;18.324;2024-01-15T05:22:11;98896.37;;;-3.64;96.09
73952;BME280;62304;47.662;18.324;2024-01-15T05:25:14;98895.06;;;-3.75;97.31
73952;BME280;62304;47.662;18.324;2024-01-15T05:28:17;98897.56;;;-3.87;98.08
73952;BME280;62304;47.662;18.324;2024-01-15T05:31:23;98889.66;;;-3.75;97.91
73952;BME280;62304;47.662;18.324;2024-01-15T05:34:26;98889.38;;;-3.65;96.99
73952;BME280;62304;47.662;18.324;2024-01-15T05:37:30;98876.22;;;-3.80;97.31
73952;BME280;62304;47.662;18.324;2024-01-15T05:40:33;98863.81;;;-3.81;96.38
73952;BME280;62304;47.662;18.324;2024-01-15T05:43:37;98849.72;;;-3.92;96.28
73952;BME280;62304;47.662;18.324;2024-01-15T05:46:40;98864.94;;;-3.82;98.11
73952;BME280;62304;47.662;18.324;2024-01-15T05:49:43;98852.06;;;-3.68;97.61
73952;BME280;62304;47.662;18.324;2024-01-15T05:52:47;98853.66;;;-3.67;97.37
73952;BME280;62304;47.662;18.324;2024-01-15T05:55:50;98860.50;;;-3.70;97.30
73952;BME280;62304;47.662;18.324;2024-01-15T05:58:53;98852.72;;;-3.63;97.41
73952;BME280;62304;47.662;18.324;2024-01-15T06:01:56;98851.69;;;-3.84;99.23
73952;BME280;62304;47.662;18.324;2024-01-15T06:05:01;98849.94;;;-3.80;98.01
73952;BME280;62304;47.662;18.324;2024-01-15T06:08:05;98860.13;;;-3.85;98.41
73952;BME280;62304;47.662;18.324;2024-01-15T06:11:09;98859.88;;;-3.67;98.31
73952;BME280;62304;47.662;18.324;2024-01-15T06:14:12;98855.91;;;-3.61;98.12
73952;BME280;62304;47.662;18.324;2024-01-15T06:17:15;98873.59;;;-3.63;97.22
73952;BME280;62304;47.662;18.324;2024-01-15T06:20:18;98881.22;;;-3.74;97.35
73952;BME280;62304;47.662;18.324;2024-01-15T06:23:21;98869.28;;;-3.64;98.40
73952;BME280;62304;47.662;18.324;2024-01-15T06:26:24;98874.72;;;-3.64;98.52
73952;BME280;62304;47.662;18.324;2024-01-15T06:29:28;98865.19;;;-3.92;99.71
73952;BME280;62304;47.662;18.324;2024-01-15T06:32:31;98880.37;;;-4.13;100.00
73952;BME280;62304;47.662;18.324;2024-01-15T06:35:34;98885.19;;;-4.02;100.00
73952;BME280;62304;47.662;18.324;2024-01-15T06:38:37;98877.88;;;-4.01;99.48
73952;BME280;62304;47.662;18.324;2024-01-15T06:41:40;98887.59;;;-4.00;99.91
73952;BME280;62304;47.662;18.324;2024-01-15T06:44:46;98880.63;;;-3.93;100.00
73952;BME280;62304;47.662;18.324;2024-01-15T06:47:49;98900.56;;;-3.89;100.00
73952;BME280;62304;47.662;18.324;2024-01-15T06:50:52;98904.69;;;-3.91;100.00
73952;BME280;62304;47.662;18.324;2024-01-15T06:53:55;98912.91;;;-4.05;100.00
73952;BME280;62304;47.662;18.324;2024-01-15T06:56:58;98903.50;;;-4.07;100.00
73952;BME280;62304;47.662;18.324;2024-01-15T07:00:02;98919.19;;;-3.96;100.00
73952;BME280;62304;47.662;18.324;2024-01-15T07:03:10;98928.09;;;-3.95;100.00
73952;BME280;62304;47.662;18.324;2024-01-15T07:06:17;98930.56;;;-4.07;100.00
73952;BME280;62304;47.662;18.324;2024-01-15T07:09:21;98937.56;;;-4.06;100.00
73952;BME280;62304;47.662;18.324;2024-01-15T07:12:24;98930.25;;;-4.06;100.00
73952;BME280;62304;47.662;18.324;2024-01-15T07:15:27;98951.63;;;-4.04;100.00
73952;BME280;62304;47.662;18.324;2024-01-15T07:18:31;98930.88;;;-4.09;100.00
73952;BME280;62304;47.662;18.324;2024-01-15T07:21:34;98949.03;;;-4.09;100.00
73952;BME280;62304;47.662;18.324;2024-01-15T07:24:43;98962.06;;;-4.11;100.00
73952;BME280;62304;47.662;18.324;2024-01-15T07:27:47;98941.28;;;-4.24;100.00
73952;BME280;62304;47.662;18.324;2024-01-15T07:30:50;98957.87;;;-4.17;100.00
73952;BME280;62304;47.662;18.324;2024-01-15T07:33:56;98946.81;;;-4.29;100.00
73952;BME280;62304;47.662;18.324;2024-01-15T07:37:00;98953.47;;;-4.13;100.00
73952;BME280;62304;47.662;18.324;2024-01-15T07:40:04;98955.78;;;-3.98;100.00
73952;BME280;62304;47.662;18.324;2024-01-15T07:43:10;98947.72;;;-3.59;100.00
73952;BME280;62304;47.662;18.324;2024-01-15T07:46:13;98951.63;;;-3.43;100.00
73952;BME280;62304;47.662;18.324;2024-01-15T07:49:16;98959.34;;;-3.11;100.00
73952;BME280;62304;47.662;18.324;2024-01-15T07:52:22;98958.38;;;-2.59;100.00
73952;BME280;62304;47.662;18.324;2024-01-15T07:55:26;98956.94;;;-2.48;100.00
73952;BME280;62304;47.662;18.324;2024-01-15T07:58:29;98950.69;;;-2.57;99.95
73952;BME280;62304;47.662;18.324;2024-01-15T08:01:36;98965.06;;;-2.40;100.00
73952;BME280;62304;47.662;18.324;2024-01-15T08:04:40;98966.66;;;-2.05;99.35
73952;BME280;62304;47.662;18.324;2024-01-15T08:07:44;98958.13;;;-1.78;98.87
73952;BME280;62304;47.662;18.324;2024-01-15T08:10:48;98957.94;;;-1.64;98.65
73952;BME280;62304;47.662;18.324;2024-01-15T08:13:51;98958.25;;;-1.57;99.46
73952;BME280;62304;47.662;18.324;2024-01-15T08:16:55;98963.44;;;-1.35;99.42
73952;BME280;62304;47.662;18.324;2024-01-15T08:19:58;98954.25;;;-1.14;98.45
73952;BME280;62304;47.662;18.324;2024-01-15T08:23:03;98949.97;;;-0.94;98.30
73952;BME280;62304;47.662;18.324;2024-01-15T08:26:06;98948.50;;;-0.63;97.76
73952;BME280;62304;47.662;18.324;2024-01-15T08:29:10;98943.06;;;-0.22;96.88
73952;BME280;62304;47.662;18.324;2024-01-15T08:32:16;98936.50;;;0.56;97.57
73952;BME280;62304;47.662;18.324;2024-01-15T08:35:20;98955.16;;;1.26;95.91
73952;BME280;62304;47.662;18.324;2024-01-15T08:38:25;98960.47;;;2.25;94.51
73952;BME280;62304;47.662;18.324;2024-01-15T08:41:29;98953.84;;;3.66;89.46
73952;BME280;62304;47.662;18.324;2024-01-15T08:44:32;98953.09;;;5.09;82.84
73952;BME280;62304;47.662;18.324;2024-01-15T08:47:35;98944.50;;;5.88;78.33
73952;BME280;62304;47.662;18.324;2024-01-15T08:50:40;98934.72;;;7.00;78.78
73952;BME280;62304;47.662;18.324;2024-01-15T08:53:43;98916.78;;;7.20;69.27
73952;BME280;62304;47.662;18.324;2024-01-15T08:56:48;98939.25;;;7.76;66.10
73952;BME280;62304;47.662;18.324;2024-01-15T08:59:51;98924.34;;;7.27;57.84
73952;BME280;62304;47.662;18.324;2024-01-15T09:02:57;98923.72;;;7.04;70.09
73952;BME280;62304;47.662;18.324;2024-01-15T09:06:01;98930.59;;;6.40;67.17
73952;BME280;62304;47.662;18.324;2024-01-15T09:09:04;98923.44;;;6.32;60.43
73952;BME280;62304;47.662;18.324;2024-01-15T09:12:09;98926.84;;;6.99;60.72
73952;BME280;62304;47.662;18.324;2024-01-15T09:15:12;98929.34;;;7.68;55.84
73952;BME280;62304;47.662;18.324;2024-01-15T09:18:16;98921.91;;;8.68;58.79
73952;BME280;62304;47.662;18.324;2024-01-15T09:21:21;98916.00;;;8.87;53.72
73952;BME280;62304;47.662;18.324;2024-01-15T09:24:25;98911.59;;;8.58;51.28
73952;BME280;62304;47.662;18.324;2024-01-15T09:27:30;98913.16;;;9.82;52.40
73952;BME280;62304;47.662;18.324;2024-01-15T09:30:34;98917.47;;;9.93;49.91
73952;BME280;62304;47.662;18.324;2024-01-15T09:33:37;98916.19;;;10.29;48.06
73952;BME280;62304;47.662;18.324;2024-01-15T09:36:41;98914.38;;;10.74;49.37
73952;BME280;62304;47.662;18.324;2024-01-15T09:39:45;98901.31;;;10.71;45.77
73952;BME280;62304;47.662;18.324;2024-01-15T09:42:49;98894.75;;;10.40;46.57
73952;BME280;62304;47.662;18.324;2024-01-15T09:45:53;98897.22;;;10.21;46.29
73952;BME280;62304;47.662;18.324;2024-01-15T09:48:57;98902.47;;;9.91;47.36
73952;BME280;62304;47.662;18.324;2024-01-15T09:52:01;98894.84;;;10.19;47.82
73952;BME280;62304;47.662;18.324;2024-01-15T09:55:13;98899.03;;;10.59;45.32
73952;BME280;62304;47.662;18.324;2024-01-15T09:58:22;98881.69;;;10.41;45.14
73952;BME280;62304;47.662;18.324;2024-01-15T10:01:26;98868.56;;;9.45;45.76
73952;BME280;62304;47.662;18.324;2024-01-15T10:04:30;98870.12;;;9.53;46.85
73952;BME280;62304;47.662;18.324;2024-01-15T10:07:35;98873.69;;;9.53;47.16
73952;BME280;62304;47.662;18.324;2024-01-15T10:10:41;98875.19;;;9.75;46.07
73952;BME280;62304;47.662;18.324;2024-01-15T10:13:44;98865.69;;;9.76;45.10
73952;BME280;62304;47.662;18.324;2024-01-15T10:16:50;98865.28;;;9.85;46.29
73952;BME280;62304;47.662;18.324;2024-01-15T10:19:54;98859.66;;;10.09;45.25
73952;BME280;62304;47.662;18.324;2024-01-15T10:22:58;98853.00;;;10.68;42.83
73952;BME280;62304;47.662;18.324;2024-01-15T10:26:01;98855.34;;;9.98;44.05
73952;BME280;62304;47.662;18.324;2024-01-15T10:29:05;98853.41;;;9.88;45.54
73952;BME280;62304;47.662;18.324;2024-01-15T10:32:08;98847.59;;;10.47;45.00
73952;BME280;62304;47.662;18.324;2024-01-15T10:35:15;98844.50;;;10.93;43.21
73952;BME280;62304;47.662;18.324;2024-01-15T10:38:20;98837.44;;;12.03;41.39
73952;BME280;62304;47.662;18.324;2024-01-15T10:41:25;98826.41;;;11.62;41.31
73952;BME280;62304;47.662;18.324;2024-01-15T10:44:29;98828.81;;;11.20;41.53
73952;BME280;62304;47.662;18.324;2024-01-15T10:47:32;98825.25;;;11.60;40.23
73952;BME280;62304;47.662;18.324;2024-01-15T10:50:36;98827.72;;;11.10;41.08
73952;BME280;62304;47.662;18.324;2024-01-15T10:53:41;98841.84;;;10.75;41.01
73952;BME280;62304;47.662;18.324;2024-01-15T10:56:47;98840.94;;;9.31;42.26
73952;BME280;62304;47.662;18.324;2024-01-15T10:59:50;98843.31;;;9.18;43.15
73952;BME280;62304;47.662;18.324;2024-01-15T11:02:54;98851.59;;;8.69;43.23
73952;BME280;62304;47.662;18.324;2024-01-15T11:06:00;98844.13;;;8.73;43.51
73952;BME280;62304;47.662;18.324;2024-01-15T11:09:07;98844.50;;;9.00;43.08
73952;BME280;62304;47.662;18.324;2024-01-15T11:12:13;98849.59;;;9.36;42.62
73952;BME280;62304;47.662;18.324;2024-01-15T11:15:19;98852.75;;;9.45;42.80
73952;BME280;62304;47.662;18.324;2024-01-15T11:18:26;98827.13;;;9.13;42.57
73952;BME280;62304;47.662;18.324;2024-01-15T11:21:30;98814.50;;;8.91;43.20
73952;BME280;62304;47.662;18.324;2024-01-15T11:24:40;98819.59;;;9.10;43.02
73952;BME280;62304;47.662;18.324;2024-01-15T11:27:46;98813.69;;;9.22;43.04
73952;BME280;62304;47.662;18.324;2024-01-15T11:30:56;98816.44;;;9.08;43.34
73952;BME280;62304;47.662;18.324;2024-01-15T11:34:02;98814.84;;;9.32;43.36
73952;BME280;62304;47.662;18.324;2024-01-15T11:37:06;98824.16;;;9.87;42.25
73952;BME280;62304;47.662;18.324;2024-01-15T11:40:10;98811.44;;;9.96;41.81
73952;BME280;62304;47.662;18.324;2024-01-15T11:43:15;98795.00;;;9.51;42.33
73952;BME280;62304;47.662;18.324;2024-01-15T11:46:25;98800.59;;;10.84;40.76
73952;BME280;62304;47.662;18.324;2024-01-15T11:53:03;98797.13;;;10.73;39.09
73952;BME280;62304;47.662;18.324;2024-01-15T11:56:16;98779.16;;;10.88;38.92
73952;BME280;62304;47.662;18.324;2024-01-15T11:59:23;98781.44;;;10.53;39.90
73952;BME280;62304;47.662;18.324;2024-01-15T12:02:26;98786.22;;;10.96;38.23
73952;BME280;62304;47.662;18.324;2024-01-15T12:05:31;98777.50;;;10.50;38.95
73952;BME280;62304;47.662;18.324;2024-01-15T12:08:34;98777.41;;;10.06;39.90
73952;BME280;62304;47.662;18.324;2024-01-15T12:11:41;98771.44;;;10.01;40.06
73952;BME280;62304;47.662;18.324;2024-01-15T12:14:48;98769.28;;;10.36;39.40
73952;BME280;62304;47.662;18.324;2024-01-15T12:17:54;98764.81;;;9.84;40.07
73952;BME280;62304;47.662;18.324;2024-01-15T12:20:58;98749.56;;;10.27;39.22
73952;BME280;62304;47.662;18.324;2024-01-15T12:24:02;98733.00;;;10.64;38.26
73952;BME280;62304;47.662;18.324;2024-01-15T12:27:08;98748.38;;;9.53;40.59
73952;BME280;62304;47.662;18.324;2024-01-15T12:30:15;98727.53;;;10.03;39.60
73952;BME280;62304;47.662;18.324;2024-01-15T12:33:19;98725.03;;;10.26;39.63
73952;BME280;62304;47.662;18.324;2024-01-15T12:36:24;98721.78;;;10.34;38.95
73952;BME280;62304;47.662;18.324;2024-01-15T12:39:28;98742.41;;;9.61;39.69
73952;BME280;62304;47.662;18.324;2024-01-15T12:42:34;98730.91;;;9.59;39.65
73952;BME280;62304;47.662;18.324;2024-01-15T12:45:38;98715.09;;;10.28;38.66
73952;BME280;62304;47.662;18.324;2024-01-15T12:48:41;98731.66;;;10.83;38.13
73952;BME280;62304;47.662;18.324;2024-01-15T12:51:56;98739.34;;;10.14;39.60
73952;BME280;62304;47.662;18.324;2024-01-15T12:55:00;98735.25;;;10.36;38.95
73952;BME280;62304;47.662;18.324;2024-01-15T12:58:04;98733.69;;;9.59;40.10
73952;BME280;62304;47.662;18.324;2024-01-15T13:01:07;98726.06;;;10.42;38.88
73952;BME280;62304;47.662;18.324;2024-01-15T13:04:11;98738.44;;;9.62;40.63
73952;BME280;62304;47.662;18.324;2024-01-15T13:07:15;98716.94;;;9.91;40.66
73952;BME280;62304;47.662;18.324;2024-01-15T13:10:19;98711.38;;;10.49;39.85
73952;BME280;62304;47.662;18.324;2024-01-15T13:13:27;98712.63;;;9.79;41.02
73952;BME280;62304;47.662;18.324;2024-01-15T13:16:30;98702.19;;;10.04;40.57
73952;BME280;62304;47.662;18.324;2024-01-15T13:19:33;98733.31;;;9.57;41.19
73952;BME280;62304;47.662;18.324;2024-01-15T13:22:37;98732.16;;;10.23;40.35
73952;BME280;62304;47.662;18.324;2024-01-15T13:25:46;98734.66;;;10.00;40.74
73952;BME280;62304;47.662;18.324;2024-01-15T13:28:49;98727.94;;;10.05;40.38
73952;BME280;62304;47.662;18.324;2024-01-15T13:31:53;98719.53;;;10.19;39.97
73952;BME280;62304;47.662;18.324;2024-01-15T13:34:57;98731.75;;;9.53;40.60
73952;BME280;62304;47.662;18.324;2024-01-15T13:38:00;98739.66;;;9.47;40.83
73952;BME280;62304;47.662;18.324;2024-01-15T13:41:04;98745.38;;;8.91;42.31
73952;BME280;62304;47.662;18.324;2024-01-15T13:44:09;98739.88;;;8.53;43.11
73952;BME280;62304;47.662;18.324;2024-01-15T13:47:13;98743.78;;;8.10;44.36
73952;BME280;62304;47.662;18.324;2024-01-15T13:50:16;98742.41;;;7.48;45.50
73952;BME280;62304;47.662;18.324;2024-01-15T13:53:19;98740.53;;;6.84;46.84
73952;BME280;62304;47.662;18.324;2024-01-15T13:56:23;98747.91;;;5.82;49.75
73952;BME280;62304;47.662;18.324;2024-01-15T13:59:27;98741.25;;;5.50;50.58
73952;BME280;62304;47.662;18.324;2024-01-15T14:02:30;98737.19;;;5.08;51.88
73952;BME280;62304;47.662;18.324;2024-01-15T14:05:34;98734.78;;;4.77;52.26
73952;BME280;62304;47.662;18.324;2024-01-15T14:08:38;98737.78;;;4.42;53.88
73952;BME280;62304;47.662;18.324;2024-01-15T14:11:42;98734.38;;;4.26;54.40
73952;BME280;62304;47.662;18.324;2024-01-15T14:14:45;98733.81;;;4.14;54.24
73952;BME280;62304;47.662;18.324;2024-01-15T14:17:49;98727.31;;;3.99;55.27
73952;BME280;62304;47.662;18.324;2024-01-15T14:20:52;98732.09;;;3.83;56.38
73952;BME280;62304;47.662;18.324;2024-01-15T14:23:59;98737.13;;;3.59;57.44
73952;BME280;62304;47.662;18.324;2024-01-15T14:27:02;98734.25;;;3.52;57.99
73952;BME280;62304;47.662;18.324;2024-01-15T14:30:09;98738.00;;;3.44;57.56
73952;BME280;62304;47.662;18.324;2024-01-15T14:33:12;98736.72;;;3.38;57.40
73952;BME280;62304;47.662;18.324;2024-01-15T14:36:15;98738.88;;;3.29;58.26
73952;BME280;62304;47.662;18.324;2024-01-15T14:39:19;98747.09;;;3.29;58.71
73952;BME280;62304;47.662;18.324;2024-01-15T14:42:25;98764.19;;;3.22;58.47
73952;BME280;62304;47.662;18.324;2024-01-15T14:45:28;98761.28;;;3.15;60.11
73952;BME280;62304;47.662;18.324;2024-01-15T14:48:33;98761.16;;;3.08;60.97
73952;BME280;62304;47.662;18.324;2024-01-15T14:51:37;98753.50;;;2.98;60.90
73952;BME280;62304;47.662;18.324;2024-01-15T14:54:44;98761.72;;;2.98;60.18
73952;BME280;62304;47.662;18.324;2024-01-15T14:57:47;98742.25;;;2.84;60.02
73952;BME280;62304;47.662;18.324;2024-01-15T15:00:55;98765.87;;;2.92;60.35
73952;BME280;62304;47.662;18.324;2024-01-15T15:03:59;98763.16;;;2.92;59.94
73952;BME280;62304;47.662;18.324;2024-01-15T15:07:03;98752.59;;;2.75;60.21
73952;BME280;62304;47.662;18.324;2024-01-15T15:10:10;98759.59;;;2.73;60.80
73952;BME280;62304;47.662;18.324;2024-01-15T15:13:14;98755.81;;;2.62;61.23
73952;BME280;62304;47.662;18.324;2024-01-15T15:16:25;98761.63;;;2.60;61.88
73952;BME280;62304;47.662;18.324;2024-01-15T15:19:31;98765.44;;;2.56;61.90
73952;BME280;62304;47.662;18.324;2024-01-15T15:22:36;98769.00;;;2.56;62.57
73952;BME280;62304;47.662;18.324;2024-01-15T15:25:39;98780.28;;;2.55;62.30
73952;BME280;62304;47.662;18.324;2024-01-15T15:28:42;98782.47;;;2.49;62.33
73952;BME280;62304;47.662;18.324;2024-01-15T15:31:46;98786.72;;;2.47;63.05
73952;BME280;62304;47.662;18.324;2024-01-15T15:34:51;98792.13;;;2.43;64.07
73952;BME280;62304;47.662;18.324;2024-01-15T15:37:55;98796.81;;;2.43;63.67
73952;BME280;62304;47.662;18.324;2024-01-15T15:40:58;98803.06;;;2.43;65.06
73952;BME280;62304;47.662;18.324;2024-01-15T15:44:04;98803.50;;;2.45;64.17
73952;BME280;62304;47.662;18.324;2024-01-15T15:47:07;98803.06;;;2.43;64.48
73952;BME280;62304;47.662;18.324;2024-01-15T15:50:11;98801.47;;;2.42;65.60
73952;BME280;62304;47.662;18.324;2024-01-15T15:53:14;98810.84;;;2.41;64.90
73952;BME280;62304;47.662;18.324;2024-01-15T15:56:17;98817.47;;;2.40;65.47
73952;BME280;62304;47.662;18.324;2024-01-15T15:59:21;98817.19;;;2.45;64.99
73952;BME280;62304;47.662;18.324;2024-01-15T16:02:24;98815.78;;;2.51;64.40
73952;BME280;62304;47.662;18.324;2024-01-15T16:05:28;98820.00;;;2.49;64.45
73952;BME280;62304;47.662;18.324;2024-01-15T16:08:46;98814.19;;;2.50;64.13